Airfield :
LOGIN :

Register | Disclaimer

   EN    FR    IT 

 










Legend :    VFR   Marginal VFR   IFR   Intensive IFR   Very Intensive IFR
Visi :
Ceiling :
>= 8 km
>= 3000ft
5 to 8 km
1000 to 3000 ft
1500m to 5 km
500 to 1000 ft
800 to 1500m
200 to 500 ft
< 800m
< 200 ft
Symbols :   Thunderstorms  Fog  Heavy snow  Heavy precipitations  Wind > 20 kt
SIGMETs :     Misc.  Thunderstorms  Icing  Turbulence  Mountain Waves  Volcanic Ashes







- Airport Elevation : 1325 ft
- IATA code : EBU
- Download approach charts


LFMH - St-Etienne Boutheon

CURRENT METAR :
  • 220030Z AUTO 17003KT 9999 BKN052 OVC100 10/07 Q1023

EXPIRED METARs :
  • 220000Z AUTO 22005KT 190V250 CAVOK 12/06 Q1023
  • 212330Z AUTO 20005KT CAVOK 12/06 Q1023
  • 212300Z AUTO 23004KT 9999 BKN054 BKN068 BKN078 12/07 Q1024
  • 212230Z AUTO 23004KT 200V260 9999 BKN058 BKN068 BKN080 12/07 Q1023
  • 212200Z AUTO 27003KT 9999 BKN058 12/07 Q1023

TAF AMD TAF LFMH
Valid from the 21 at 15:00 until the 22 at 15:00 UTC


211540Z 2115/2215 25010KT 9999 FEW045 BKN070
TEMPO 2115/2118 34012KT RA
PROB40
TEMPO 2118/2121 4000 -SHRA FEW040TCU
PROB40
TEMPO 2200/2209 NSW
PROB30
TEMPO 2209/2215 30010G20KT SHRA FEW040TCU
ATIS : +33 4 77 36 17 51
No reported NOTAMs for that airfield.



MET'MAP, your aeronautical weather chart ! - Copyright ORBIFLY December 2007 - Disclaimer

ORBIFLY MET'MAP TEAM :

Programming & Development : Alexandra Zaïnal
Concept & Development : Baudouin d'Aumeries
Co-Development & Prog : Marc-Olivier Méhu
Technical & hardware support : Manuel Goepfert

Contact : metmap@orbifly.com




SOURCES & CREDITS :

   NOAA